createdAt,value
2018-04-14T00:00:34.725Z,6.10
2018-04-14T00:01:34.660Z,6.60
2018-04-14T00:02:34.620Z,7.20
2018-04-14T00:03:34.537Z,7.40
2018-04-14T00:04:34.477Z,7.80
2018-04-14T00:05:34.419Z,7.80
2018-04-14T00:06:34.353Z,7.10
2018-04-14T00:07:34.288Z,8.30
2018-04-14T00:08:34.226Z,7.80
2018-04-14T00:09:34.160Z,7.90
2018-04-14T00:10:34.095Z,8.60
2018-04-14T00:11:34.037Z,8.90
2018-04-14T00:12:33.975Z,9.20
2018-04-14T00:13:33.908Z,9.90
2018-04-14T00:14:33.845Z,9.80
2018-04-14T00:15:33.784Z,10.40
2018-04-14T00:16:33.720Z,10.00
2018-04-14T00:17:33.660Z,11.00
2018-04-14T00:18:33.596Z,11.40
2018-04-14T00:19:33.542Z,11.60
2018-04-14T00:20:33.472Z,12.40
2018-04-14T00:21:33.406Z,13.20
2018-04-14T00:22:33.345Z,12.90
2018-04-14T00:23:33.282Z,13.10
2018-04-14T00:24:33.217Z,14.20
2018-04-14T00:25:33.160Z,14.60
2018-04-14T00:26:33.098Z,15.50
2018-04-14T00:27:33.031Z,14.10
2018-04-14T00:28:32.965Z,16.70
2018-04-14T00:29:32.905Z,16.00
2018-04-14T00:30:32.841Z,16.00
2018-04-14T00:31:32.779Z,16.00
2018-04-14T00:32:32.717Z,17.20
2018-04-14T00:33:32.652Z,17.10
2018-04-14T00:34:32.588Z,16.00
2018-04-14T00:35:32.525Z,15.90
2018-04-14T00:36:32.463Z,15.40
2018-04-14T00:37:32.404Z,16.30
2018-04-14T00:38:32.337Z,15.90
2018-04-14T00:39:32.275Z,16.80
2018-04-14T00:40:39.864Z,15.40
2018-04-14T00:42:27.127Z,13.90
2018-04-14T00:43:26.453Z,14.90
2018-04-14T00:45:20.754Z,15.10
2018-04-14T00:46:20.652Z,14.90
2018-04-14T00:48:14.065Z,15.00
2018-04-14T00:49:13.863Z,15.00
2018-04-14T00:51:08.161Z,15.90
2018-04-14T00:52:08.065Z,16.80
2018-04-14T00:54:02.370Z,15.60
2018-04-14T00:55:02.267Z,15.10
2018-04-14T00:56:56.566Z,15.90
2018-04-14T00:57:56.470Z,15.90
2018-04-14T00:58:56.408Z,16.50
2018-04-14T00:59:56.344Z,17.70
2018-04-14T01:00:56.279Z,17.00
2018-04-14T01:01:56.220Z,17.10
2018-04-14T01:02:56.157Z,17.30
2018-04-14T01:03:56.093Z,17.20
2018-04-14T01:04:56.028Z,16.70
2018-04-14T01:05:55.965Z,17.10
2018-04-14T01:06:55.905Z,18.40
2018-04-14T01:07:55.842Z,18.00
2018-04-14T01:08:55.779Z,17.50
2018-04-14T01:09:55.728Z,17.50
2018-04-14T01:10:55.652Z,18.60
2018-04-14T01:11:55.586Z,17.50
2018-04-14T01:12:55.528Z,17.50
2018-04-14T01:13:55.467Z,18.10
2018-04-14T01:14:55.401Z,17.70
2018-04-14T01:15:55.340Z,17.00
2018-04-14T01:16:55.280Z,17.20
2018-04-14T01:17:55.215Z,17.00
2018-04-14T01:18:55.154Z,17.70
2018-04-14T01:19:55.091Z,17.00
2018-04-14T01:20:55.025Z,17.00
2018-04-14T01:21:54.966Z,16.10
2018-04-14T01:22:54.898Z,16.90
2018-04-14T01:23:54.835Z,16.60
2018-04-14T01:24:54.774Z,16.70
2018-04-14T01:25:54.712Z,16.40
2018-04-14T01:26:54.649Z,16.60
2018-04-14T01:27:54.588Z,16.40
2018-04-14T01:28:54.525Z,16.40
2018-04-14T01:29:54.457Z,16.90
2018-04-14T01:30:54.407Z,17.20
2018-04-14T01:31:54.332Z,17.30
2018-04-14T01:32:54.274Z,16.50
2018-04-14T01:33:54.215Z,16.70
2018-04-14T01:34:54.144Z,16.60
2018-04-14T01:35:54.082Z,16.80
2018-04-14T01:36:54.028Z,16.30
2018-04-14T01:37:53.961Z,16.40
2018-04-14T01:38:53.895Z,17.00
2018-04-14T01:39:53.842Z,16.50
2018-04-14T01:40:53.773Z,15.60
2018-04-14T01:41:53.709Z,16.70
2018-04-14T01:42:53.644Z,15.90
2018-04-14T01:43:53.582Z,16.20
2018-04-14T01:44:53.523Z,16.00
2018-04-14T01:45:53.458Z,15.90
2018-04-14T01:46:53.395Z,16.10
2018-04-14T01:47:53.333Z,16.70
2018-04-14T01:48:53.268Z,16.00
2018-04-14T01:49:53.206Z,15.20
2018-04-14T01:50:53.145Z,14.40
2018-04-14T01:51:53.082Z,16.20
2018-04-14T01:52:53.020Z,15.70
2018-04-14T01:53:52.963Z,15.80
2018-04-14T01:54:52.891Z,15.20
2018-04-14T01:55:52.830Z,16.20
2018-04-14T01:56:52.767Z,15.60
2018-04-14T01:57:52.705Z,15.70
2018-04-14T01:58:52.645Z,15.30
2018-04-14T01:59:52.581Z,16.00
2018-04-14T02:00:52.522Z,16.00
2018-04-14T02:01:52.454Z,15.80
2018-04-14T02:02:52.391Z,16.30
2018-04-14T02:03:52.327Z,15.90
2018-04-14T02:04:52.267Z,17.00
2018-04-14T02:05:52.204Z,17.00
2018-04-14T02:06:52.139Z,15.70
2018-04-14T02:07:52.076Z,15.90
2018-04-14T02:08:52.013Z,16.60
2018-04-14T02:09:51.954Z,17.30
2018-04-14T02:10:51.891Z,16.90
2018-04-14T02:11:51.828Z,16.30
2018-04-14T02:12:51.779Z,16.00
2018-04-14T02:13:51.699Z,16.10
2018-04-14T02:14:51.637Z,16.90
2018-04-14T02:15:51.575Z,17.20
2018-04-14T02:16:51.516Z,16.60
2018-04-14T02:17:51.450Z,17.20
2018-04-14T02:18:51.418Z,17.00
2018-04-14T02:19:51.326Z,16.20
2018-04-14T02:20:51.258Z,16.90
2018-04-14T02:21:51.199Z,16.50
2018-04-14T02:22:51.140Z,16.30
2018-04-14T02:23:51.076Z,16.70
2018-04-14T02:24:51.012Z,16.70
2018-04-14T02:25:50.953Z,16.30
2018-04-14T02:26:50.880Z,16.40
2018-04-14T02:27:50.823Z,17.50
2018-04-14T02:28:50.760Z,17.40
2018-04-14T02:29:50.693Z,17.10
2018-04-14T02:30:50.635Z,17.60
2018-04-14T02:31:50.579Z,17.70
2018-04-14T02:32:50.513Z,16.90
2018-04-14T02:33:50.449Z,17.90
2018-04-14T02:34:50.381Z,18.30
2018-04-14T02:35:50.327Z,18.20
2018-04-14T02:36:50.265Z,18.70
2018-04-14T02:37:50.193Z,19.30
2018-04-14T02:38:50.130Z,19.00
2018-04-14T02:39:50.071Z,18.70
2018-04-14T02:40:50.008Z,20.80
2018-04-14T02:41:49.943Z,19.40
2018-04-14T02:42:49.885Z,21.60
2018-04-14T02:43:49.821Z,21.30
2018-04-14T02:44:49.758Z,22.40
2018-04-14T02:45:49.701Z,23.30
2018-04-14T02:46:49.626Z,22.30
2018-04-14T02:47:49.566Z,23.30
2018-04-14T02:48:49.503Z,24.00
2018-04-14T02:49:49.436Z,25.70
2018-04-14T02:50:49.376Z,24.20
2018-04-14T02:51:49.324Z,24.50
2018-04-14T02:52:49.249Z,21.60
2018-04-14T02:53:56.910Z,27.80
2018-04-14T02:55:43.492Z,34.40
2018-04-14T02:56:52.217Z,29.00
2018-04-14T02:58:38.304Z,28.70
2018-04-14T02:59:46.226Z,31.00
2018-04-14T03:01:32.005Z,25.60
2018-04-14T03:02:40.415Z,25.50
2018-04-14T03:04:25.705Z,27.10
2018-04-14T03:05:32.839Z,21.60
2018-04-14T03:07:18.319Z,26.90
2018-04-14T03:08:26.879Z,36.00
2018-04-14T03:10:12.655Z,21.50
2018-04-14T03:11:12.419Z,23.20
2018-04-14T03:13:07.329Z,24.10
2018-04-14T03:14:06.613Z,29.30
2018-04-14T03:16:01.025Z,28.70
2018-04-14T03:17:00.819Z,27.50
2018-04-14T03:18:00.748Z,24.60
2018-04-14T03:19:00.685Z,27.90
2018-04-14T03:20:00.618Z,32.90
2018-04-14T03:21:00.550Z,29.10
2018-04-14T03:22:08.122Z,22.20
2018-04-14T03:23:55.403Z,31.10
2018-04-14T03:24:54.687Z,33.70
2018-04-14T03:26:48.985Z,23.70
2018-04-14T03:27:48.884Z,22.30
2018-04-14T03:29:43.183Z,27.40
2018-04-14T03:30:43.080Z,26.60
2018-04-14T03:32:37.990Z,23.10
2018-04-14T03:33:37.275Z,20.80
2018-04-14T03:35:31.688Z,33.20
2018-04-14T03:36:31.461Z,20.30
2018-04-14T03:38:25.375Z,21.10
2018-04-14T03:39:24.680Z,20.40
2018-04-14T03:41:19.092Z,31.60
2018-04-14T03:42:18.876Z,20.20
2018-04-14T03:44:12.185Z,18.30
2018-04-14T03:45:12.088Z,20.60
2018-04-14T03:47:05.395Z,21.80
2018-04-14T03:48:12.920Z,19.70
2018-04-14T03:49:59.592Z,26.20
2018-04-14T03:50:59.486Z,24.70
2018-04-14T03:52:53.797Z,23.00
2018-04-14T03:53:53.696Z,21.80
2018-04-14T03:55:47.986Z,22.40
2018-04-14T03:56:47.886Z,16.70
2018-04-14T03:58:42.477Z,20.40
2018-04-14T03:59:42.376Z,20.80
2018-04-14T04:01:36.721Z,27.20
2018-04-14T04:02:36.622Z,25.30
2018-04-14T04:04:31.522Z,28.60
2018-04-14T04:05:30.815Z,32.70
2018-04-14T04:07:25.114Z,24.80
2018-04-14T04:08:25.014Z,32.00
2018-04-14T04:10:19.950Z,22.60
2018-04-14T04:11:19.212Z,27.20
2018-04-14T04:13:13.501Z,33.20
2018-04-14T04:14:13.408Z,33.50
2018-04-14T04:16:06.700Z,40.10
2018-04-14T04:17:06.615Z,38.10
2018-04-14T04:19:00.906Z,33.70
2018-04-14T04:20:00.807Z,40.60
2018-04-14T04:21:55.095Z,29.20
2018-04-14T04:22:55.011Z,36.80
2018-04-14T04:24:49.298Z,41.20
2018-04-14T04:25:49.196Z,42.60
2018-04-14T04:27:42.490Z,50.50
2018-04-14T04:28:42.399Z,46.40
2018-04-14T04:30:36.688Z,46.70
2018-04-14T04:31:36.595Z,47.80
2018-04-14T04:33:30.885Z,43.70
2018-04-14T04:34:30.798Z,39.20
2018-04-14T04:36:25.082Z,57.10
2018-04-14T04:37:24.991Z,48.00
2018-04-14T04:39:19.401Z,63.30
2018-04-14T04:40:19.183Z,62.90
2018-04-14T04:42:13.476Z,60.10
2018-04-14T04:43:13.385Z,56.50
2018-04-14T04:45:07.666Z,59.70
2018-04-14T04:46:07.579Z,58.40
2018-04-14T04:48:01.994Z,60.80
2018-04-14T04:49:01.774Z,59.50
2018-04-14T04:50:56.176Z,33.20
2018-04-14T04:51:55.980Z,25.80
2018-04-14T04:53:50.385Z,51.70
2018-04-14T04:54:50.175Z,52.30
2018-04-14T04:56:43.585Z,51.10
2018-04-14T04:57:43.382Z,47.80
2018-04-14T04:59:37.797Z,41.40
2018-04-14T05:00:37.589Z,38.00
2018-04-14T05:02:31.889Z,36.60
2018-04-14T05:03:31.792Z,46.70
2018-04-14T05:05:25.692Z,46.30
2018-04-14T05:06:24.997Z,35.10
2018-04-14T05:08:19.896Z,40.50
2018-04-14T05:09:19.192Z,30.10
2018-04-14T05:11:13.602Z,37.30
2018-04-14T05:12:13.390Z,35.30
2018-04-14T05:14:07.795Z,44.60
2018-04-14T05:15:07.588Z,41.90
2018-04-14T05:17:02.496Z,40.70
2018-04-14T05:18:01.947Z,38.50
2018-04-14T05:19:56.274Z,31.50
2018-04-14T05:20:56.185Z,33.10
2018-04-14T05:22:50.471Z,35.40
2018-04-14T05:23:50.379Z,41.00
2018-04-14T05:25:44.684Z,36.10
2018-04-14T05:26:44.575Z,30.80
2018-04-14T05:28:39.477Z,38.20
2018-04-14T05:29:38.767Z,28.60
2018-04-14T05:31:33.063Z,35.90
2018-04-14T05:32:32.975Z,30.90
2018-04-14T05:34:27.267Z,34.10
2018-04-14T05:35:27.171Z,38.20
2018-04-14T05:37:21.486Z,44.60
2018-04-14T05:38:21.382Z,30.00
2018-04-14T05:40:15.679Z,46.10
2018-04-14T05:41:15.580Z,44.40
2018-04-14T05:43:09.869Z,38.20
2018-04-14T05:44:09.773Z,42.40
2018-04-14T05:46:03.082Z,45.70
2018-04-14T05:47:02.979Z,38.50
2018-04-14T05:48:57.266Z,40.50
2018-04-14T05:49:57.175Z,41.10
2018-04-14T05:51:52.087Z,41.90
2018-04-14T05:52:51.382Z,35.20
2018-04-14T05:54:45.671Z,41.00
2018-04-14T05:55:45.578Z,31.60
2018-04-14T05:57:39.885Z,41.00
2018-04-14T05:58:39.778Z,39.60
2018-04-14T06:00:34.629Z,29.80
2018-04-14T06:01:34.532Z,30.10
2018-04-14T06:02:34.460Z,41.50
2018-04-14T06:03:34.399Z,44.40
2018-04-14T06:04:34.336Z,41.00
2018-04-14T06:05:34.269Z,43.50
2018-04-14T06:06:34.200Z,34.90
2018-04-14T06:07:34.140Z,36.40
2018-04-14T06:08:34.071Z,41.50
2018-04-14T06:09:34.003Z,48.90
2018-04-14T06:10:33.949Z,47.40
2018-04-14T06:11:33.878Z,52.30
2018-04-14T06:12:33.808Z,51.90
2018-04-14T06:13:33.747Z,49.30
2018-04-14T06:14:33.680Z,37.10
2018-04-14T06:15:33.617Z,43.60
2018-04-14T06:16:33.553Z,43.70
2018-04-14T06:17:33.489Z,44.60
2018-04-14T06:18:33.422Z,47.40
2018-04-14T06:19:33.358Z,44.50
2018-04-14T06:20:33.291Z,41.20
2018-04-14T06:21:33.228Z,52.50
2018-04-14T06:22:33.164Z,50.10
2018-04-14T06:23:33.098Z,51.10
2018-04-14T06:24:33.027Z,54.80
2018-04-14T06:25:32.969Z,47.70
2018-04-14T06:26:32.904Z,49.50
2018-04-14T06:27:32.838Z,56.20
2018-04-14T06:28:32.774Z,33.10
2018-04-14T06:29:32.708Z,47.60
2018-04-14T06:30:32.648Z,50.70
2018-04-14T06:31:32.585Z,54.60
2018-04-14T06:32:32.527Z,59.60
2018-04-14T06:33:32.448Z,53.50
2018-04-14T06:34:32.382Z,59.80
2018-04-14T06:35:32.319Z,55.00
2018-04-14T06:36:32.256Z,56.90
2018-04-14T06:37:32.192Z,59.00
2018-04-14T06:38:32.123Z,58.20
2018-04-14T06:39:32.059Z,57.90
2018-04-14T06:40:31.996Z,56.10
2018-04-14T06:41:31.931Z,62.80
2018-04-14T06:42:31.872Z,59.70
2018-04-14T06:43:31.803Z,58.20
2018-04-14T06:44:31.735Z,56.80
2018-04-14T06:45:31.671Z,60.90
2018-04-14T06:46:31.602Z,62.60
2018-04-14T06:47:31.537Z,51.00
2018-04-14T06:48:31.482Z,61.60
2018-04-14T06:49:31.417Z,57.30
2018-04-14T06:50:31.346Z,54.80
2018-04-14T06:51:31.287Z,57.90
2018-04-14T06:52:31.222Z,57.20
2018-04-14T06:53:31.152Z,56.50
2018-04-14T06:54:31.091Z,51.50
2018-04-14T06:55:31.029Z,51.30
2018-04-14T06:56:30.960Z,57.10
2018-04-14T06:57:30.895Z,55.70
2018-04-14T06:58:30.832Z,59.00
2018-04-14T06:59:30.767Z,55.00
2018-04-14T07:00:30.786Z,57.10
2018-04-14T07:01:30.643Z,49.10
2018-04-14T07:02:30.576Z,49.10
2018-04-14T07:03:30.522Z,50.70
2018-04-14T07:04:30.488Z,59.00
2018-04-14T07:05:30.383Z,60.40
2018-04-14T07:06:30.322Z,62.20
2018-04-14T07:07:30.249Z,52.80
2018-04-14T07:08:30.194Z,54.70
2018-04-14T07:09:30.138Z,53.50
2018-04-14T07:10:30.070Z,52.70
2018-04-14T07:11:30.007Z,49.80
2018-04-14T07:12:29.949Z,53.20
2018-04-14T07:13:29.874Z,51.80
2018-04-14T07:14:29.804Z,56.60
2018-04-14T07:15:29.744Z,42.80
2018-04-14T07:16:29.676Z,44.90
2018-04-14T07:17:29.617Z,55.40
2018-04-14T07:18:29.544Z,51.10
2018-04-14T07:19:29.485Z,56.10
2018-04-14T07:20:29.474Z,57.90
2018-04-14T07:21:29.357Z,54.60
2018-04-14T07:22:29.299Z,52.90
2018-04-14T07:23:29.238Z,52.40
2018-04-14T07:24:29.166Z,56.40
2018-04-14T07:25:29.102Z,57.10
2018-04-14T07:26:29.043Z,59.80
2018-04-14T07:27:28.976Z,56.60
2018-04-14T07:28:28.917Z,50.90
2018-04-14T07:29:28.853Z,57.40
2018-04-14T07:30:28.783Z,54.40
2018-04-14T07:31:28.722Z,58.00
2018-04-14T07:32:28.713Z,57.10
2018-04-14T07:33:28.597Z,57.30
2018-04-14T07:34:28.533Z,50.00
2018-04-14T07:35:28.477Z,49.50
2018-04-14T07:36:28.401Z,53.20
2018-04-14T07:37:28.345Z,60.50
2018-04-14T07:38:28.290Z,61.30
2018-04-14T07:39:28.213Z,57.90
2018-04-14T07:40:28.157Z,55.90
2018-04-14T07:41:28.096Z,63.30
2018-04-14T07:42:28.025Z,62.50
2018-04-14T07:43:27.975Z,56.20
2018-04-14T07:44:27.904Z,59.50
2018-04-14T07:45:27.838Z,61.60
2018-04-14T07:46:27.775Z,57.90
2018-04-14T07:47:27.718Z,58.10
2018-04-14T07:48:27.646Z,46.80
2018-04-14T07:49:27.584Z,55.60
2018-04-14T07:50:27.520Z,49.30
2018-04-14T07:51:27.456Z,48.90
2018-04-14T07:52:27.394Z,59.30
2018-04-14T07:53:27.342Z,55.10
2018-04-14T07:54:27.267Z,57.30
2018-04-14T07:55:27.213Z,52.40
2018-04-14T07:56:27.140Z,50.00
2018-04-14T07:57:27.077Z,49.40
2018-04-14T07:58:27.018Z,53.50
2018-04-14T07:59:26.973Z,56.30
2018-04-14T08:00:26.887Z,57.00
2018-04-14T08:01:26.826Z,48.00
2018-04-14T08:02:26.763Z,39.00
2018-04-14T08:03:26.697Z,43.10
2018-04-14T08:04:26.638Z,48.30
2018-04-14T08:05:26.584Z,54.80
2018-04-14T08:06:26.521Z,55.00
2018-04-14T08:07:26.465Z,56.80
2018-04-14T08:08:26.400Z,49.50
2018-04-14T08:09:26.325Z,46.40
2018-04-14T08:10:26.271Z,43.00
2018-04-14T08:11:26.200Z,48.10
2018-04-14T08:12:26.141Z,53.30
2018-04-14T08:13:26.072Z,57.40
2018-04-14T08:14:26.020Z,57.80
2018-04-14T08:15:25.945Z,55.00
2018-04-14T08:16:25.885Z,57.70
2018-04-14T08:17:25.829Z,58.20
2018-04-14T08:18:25.774Z,59.00
2018-04-14T08:19:25.698Z,54.10
2018-04-14T08:20:25.634Z,52.80
2018-04-14T08:21:25.574Z,58.60
2018-04-14T08:22:25.507Z,53.60
2018-04-14T08:23:25.449Z,43.90
2018-04-14T08:24:25.385Z,51.10
2018-04-14T08:25:25.326Z,52.10
2018-04-14T08:26:25.258Z,51.90
2018-04-14T08:27:25.197Z,51.20
2018-04-14T08:28:25.135Z,54.00
2018-04-14T08:29:25.072Z,51.10
2018-04-14T08:30:25.011Z,54.90
2018-04-14T08:31:24.949Z,53.50
2018-04-14T08:32:24.886Z,56.90
2018-04-14T08:33:24.826Z,53.80
2018-04-14T08:34:24.761Z,54.60
2018-04-14T08:35:24.696Z,50.60
2018-04-14T08:36:24.641Z,53.90
2018-04-14T08:37:24.614Z,48.40
2018-04-14T08:38:24.516Z,48.40
2018-04-14T08:39:24.456Z,53.50
2018-04-14T08:40:24.389Z,54.00
2018-04-14T08:41:24.380Z,55.60
2018-04-14T08:42:24.269Z,48.20
2018-04-14T08:43:24.205Z,53.60
2018-04-14T08:44:24.144Z,56.00
2018-04-14T08:45:24.083Z,55.30
2018-04-14T08:46:24.023Z,53.50
2018-04-14T08:47:23.952Z,56.50
2018-04-14T08:48:23.897Z,50.10
2018-04-14T08:49:23.839Z,49.80
2018-04-14T08:50:23.769Z,48.20
2018-04-14T08:51:23.710Z,48.00
2018-04-14T08:52:23.646Z,49.10
2018-04-14T08:53:23.584Z,50.50
2018-04-14T08:54:23.530Z,49.00
2018-04-14T08:55:23.462Z,44.80
2018-04-14T08:56:23.403Z,44.30
2018-04-14T08:57:23.335Z,45.90
2018-04-14T08:58:23.272Z,48.10
2018-04-14T08:59:23.217Z,45.50
2018-04-14T09:00:23.154Z,44.10
2018-04-14T09:01:23.106Z,46.40
2018-04-14T09:02:23.027Z,46.50
2018-04-14T09:03:22.963Z,47.80
2018-04-14T09:04:22.905Z,43.20
2018-04-14T09:05:22.843Z,46.30
2018-04-14T09:06:22.779Z,43.30
2018-04-14T09:07:22.719Z,43.90
2018-04-14T09:08:22.653Z,46.00
2018-04-14T09:09:22.592Z,38.60
2018-04-14T09:10:22.526Z,38.30
2018-04-14T09:11:22.472Z,43.60
2018-04-14T09:12:22.409Z,42.60
2018-04-14T09:13:22.346Z,43.90
2018-04-14T09:14:22.288Z,42.80
2018-04-14T09:15:22.221Z,41.50
2018-04-14T09:16:22.272Z,34.80
2018-04-14T09:17:22.106Z,41.10
2018-04-14T09:18:22.065Z,42.20
2018-04-14T09:19:21.972Z,38.20
2018-04-14T09:20:21.914Z,36.30
2018-04-14T09:21:21.857Z,38.70
2018-04-14T09:22:21.783Z,40.60
2018-04-14T09:23:21.731Z,36.60
2018-04-14T09:24:21.666Z,37.50
2018-04-14T09:25:21.610Z,40.00
2018-04-14T09:26:21.545Z,37.10
2018-04-14T09:27:21.498Z,38.50
2018-04-14T09:28:21.420Z,34.60
2018-04-14T09:29:21.361Z,35.70
2018-04-14T09:30:21.300Z,35.20
2018-04-14T09:31:21.238Z,36.20
2018-04-14T09:32:21.179Z,35.70
2018-04-14T09:33:21.120Z,34.00
2018-04-14T09:34:21.054Z,29.80
2018-04-14T09:35:20.999Z,27.50
2018-04-14T09:36:20.945Z,25.90
2018-04-14T09:37:20.878Z,33.30
2018-04-14T09:38:20.831Z,23.20
2018-04-14T09:39:20.755Z,26.50
2018-04-14T09:40:20.703Z,25.50
2018-04-14T09:41:20.633Z,28.80
2018-04-14T09:42:20.572Z,30.40
2018-04-14T09:43:20.513Z,29.40
2018-04-14T09:44:20.459Z,25.70
2018-04-14T09:45:20.392Z,19.90
2018-04-14T09:46:20.331Z,25.10
2018-04-14T09:47:20.270Z,28.70
2018-04-14T09:48:20.206Z,30.00
2018-04-14T09:49:20.151Z,31.40
2018-04-14T09:50:20.106Z,30.50
2018-04-14T09:51:20.027Z,30.40
2018-04-14T09:52:19.962Z,27.60
2018-04-14T09:53:19.906Z,30.50
2018-04-14T09:54:19.843Z,27.30
2018-04-14T09:55:19.782Z,21.70
2018-04-14T09:56:19.723Z,23.70
2018-04-14T09:57:19.668Z,21.90
2018-04-14T09:58:19.604Z,25.70
2018-04-14T09:59:19.541Z,30.50
2018-04-14T10:00:19.479Z,20.00
2018-04-14T10:01:19.419Z,21.70
2018-04-14T10:02:19.358Z,23.20
2018-04-14T10:03:19.299Z,24.80
2018-04-14T10:04:19.239Z,28.20
2018-04-14T10:05:19.178Z,28.90
2018-04-14T10:06:19.111Z,28.40
2018-04-14T10:07:19.065Z,26.70
2018-04-14T10:08:18.996Z,26.60
2018-04-14T10:09:18.937Z,27.90
2018-04-14T10:10:18.884Z,28.50
2018-04-14T10:11:18.817Z,28.20
2018-04-14T10:12:18.755Z,27.10
2018-04-14T10:13:18.695Z,27.10
2018-04-14T10:14:18.634Z,27.70
2018-04-14T10:15:18.572Z,26.40
2018-04-14T10:16:18.567Z,27.10
2018-04-14T10:17:18.455Z,27.60
2018-04-14T10:18:18.401Z,24.70
2018-04-14T10:19:18.341Z,24.00
2018-04-14T10:20:18.282Z,25.30
2018-04-14T10:21:18.218Z,26.50
2018-04-14T10:22:18.161Z,24.20
2018-04-14T10:23:18.099Z,23.20
2018-04-14T10:24:18.037Z,24.10
2018-04-14T10:25:17.983Z,23.10
2018-04-14T10:26:17.920Z,20.50
2018-04-14T10:27:17.862Z,17.50
2018-04-14T10:28:17.805Z,20.40
2018-04-14T10:29:17.750Z,22.70
2018-04-14T10:30:17.681Z,26.30
2018-04-14T10:31:17.627Z,22.50
2018-04-14T10:32:17.596Z,21.40
2018-04-14T10:33:17.507Z,22.20
2018-04-14T10:34:17.441Z,22.10
2018-04-14T10:35:17.389Z,22.40
2018-04-14T10:36:17.328Z,25.60
2018-04-14T10:37:17.270Z,21.30
2018-04-14T10:38:17.207Z,24.50
2018-04-14T10:39:17.147Z,21.80
2018-04-14T10:40:17.128Z,24.80
2018-04-14T10:41:17.031Z,22.00
2018-04-14T10:42:16.971Z,23.80
2018-04-14T10:43:16.918Z,25.00
2018-04-14T10:44:16.849Z,24.70
2018-04-14T10:45:16.792Z,25.10
2018-04-14T10:46:16.731Z,23.40
2018-04-14T10:47:16.674Z,21.20
2018-04-14T10:48:16.614Z,22.90
2018-04-14T10:49:16.556Z,23.90
2018-04-14T10:50:16.498Z,22.90
2018-04-14T10:51:16.442Z,24.30
2018-04-14T10:52:16.377Z,21.80
2018-04-14T10:53:16.324Z,23.90
2018-04-14T10:54:16.262Z,20.90
2018-04-14T10:55:16.205Z,25.00
2018-04-14T10:56:16.145Z,24.80
2018-04-14T10:57:16.088Z,23.50
2018-04-14T10:58:16.715Z,26.10
2018-04-14T10:59:15.970Z,26.50
2018-04-14T11:00:15.915Z,22.90
2018-04-14T11:01:15.862Z,26.00
2018-04-14T11:02:15.799Z,24.80
2018-04-14T11:03:15.743Z,23.60
2018-04-14T11:04:15.679Z,24.90
2018-04-14T11:05:15.626Z,24.60
2018-04-14T11:06:15.568Z,25.90
2018-04-14T11:07:15.515Z,25.10
2018-04-14T11:08:20.331Z,23.40
2018-04-14T11:09:15.398Z,22.50
2018-04-14T11:10:15.363Z,25.60
2018-04-14T11:11:15.283Z,23.80
2018-04-14T11:12:15.227Z,23.60
2018-04-14T11:13:15.170Z,25.30
2018-04-14T11:14:15.111Z,26.20
2018-04-14T11:15:15.076Z,26.80
2018-04-14T11:16:14.992Z,26.00
2018-04-14T11:17:14.938Z,26.70
2018-04-14T11:18:14.877Z,26.10
2018-04-14T11:19:14.828Z,26.00
2018-04-14T11:20:14.764Z,24.50
2018-04-14T11:21:14.705Z,27.00
2018-04-14T11:22:14.672Z,26.30
2018-04-14T11:23:14.592Z,26.10
2018-04-14T11:24:14.531Z,26.10
2018-04-14T11:25:14.472Z,27.90
2018-04-14T11:26:14.415Z,28.40
2018-04-14T11:27:14.352Z,26.20
2018-04-14T11:28:14.303Z,25.80
2018-04-14T11:29:14.237Z,27.60
2018-04-14T11:30:14.179Z,25.10
2018-04-14T11:31:14.154Z,27.10
2018-04-14T11:32:14.063Z,28.30
2018-04-14T11:33:14.003Z,27.60
2018-04-14T11:34:13.945Z,26.50
2018-04-14T11:35:13.884Z,25.50
2018-04-14T11:36:13.824Z,26.40
2018-04-14T11:37:13.764Z,25.90
2018-04-14T11:38:13.704Z,26.60
2018-04-14T11:39:13.651Z,27.60
2018-04-14T11:40:13.583Z,28.20
2018-04-14T11:41:13.532Z,28.90
2018-04-14T11:42:13.464Z,26.50
2018-04-14T11:43:13.408Z,29.90
2018-04-14T11:44:13.347Z,28.00
2018-04-14T11:45:13.287Z,29.20
2018-04-14T11:46:13.225Z,28.80
2018-04-14T11:47:13.167Z,29.50
2018-04-14T11:48:13.107Z,32.00
2018-04-14T11:49:13.044Z,28.50
2018-04-14T11:50:12.979Z,30.20
2018-04-14T11:51:12.920Z,27.30
2018-04-14T11:52:12.868Z,31.40
2018-04-14T11:53:12.806Z,33.30
2018-04-14T11:54:12.742Z,33.90
2018-04-14T11:55:15.489Z,32.10
2018-04-14T11:56:12.620Z,31.60
2018-04-14T11:57:12.561Z,33.90
2018-04-14T11:58:12.499Z,32.40
2018-04-14T11:59:12.438Z,35.40
2018-04-14T12:00:12.382Z,36.20
2018-04-14T12:01:12.314Z,34.40
2018-04-14T12:02:12.253Z,37.50
2018-04-14T12:03:12.191Z,37.00
2018-04-14T12:04:12.174Z,37.20
2018-04-14T12:05:12.070Z,39.80
2018-04-14T12:06:12.010Z,36.70
2018-04-14T12:07:11.947Z,40.40
2018-04-14T12:08:11.894Z,39.90
2018-04-14T12:09:11.823Z,42.00
2018-04-14T12:10:11.760Z,41.40
2018-04-14T12:11:11.698Z,38.90
2018-04-14T12:12:11.645Z,38.70
2018-04-14T12:13:11.581Z,34.40
2018-04-14T12:14:11.522Z,38.80
2018-04-14T12:15:11.452Z,43.30
2018-04-14T12:16:11.394Z,41.90
2018-04-14T12:17:11.336Z,42.90
2018-04-14T12:18:11.270Z,45.90
2018-04-14T12:19:11.211Z,42.50
2018-04-14T12:20:11.154Z,39.90
2018-04-14T12:21:11.082Z,37.90
2018-04-14T12:22:11.029Z,41.00
2018-04-14T12:23:10.961Z,39.80
2018-04-14T12:24:10.902Z,38.60
2018-04-14T12:25:10.859Z,37.30
2018-04-14T12:26:10.780Z,35.60
2018-04-14T12:27:10.727Z,37.00
2018-04-14T12:28:10.725Z,35.50
2018-04-14T12:29:10.596Z,37.20
2018-04-14T12:30:10.543Z,35.30
2018-04-14T12:31:10.478Z,35.10
2018-04-14T12:32:10.417Z,34.10
2018-04-14T12:33:10.346Z,35.80
2018-04-14T12:34:10.287Z,32.70
2018-04-14T12:35:10.224Z,34.00
2018-04-14T12:36:10.165Z,36.80
2018-04-14T12:37:10.108Z,39.80
2018-04-14T12:38:10.053Z,41.50
2018-04-14T12:39:09.982Z,37.80
2018-04-14T12:40:09.918Z,36.40
2018-04-14T12:41:09.856Z,36.70
2018-04-14T12:42:09.793Z,39.70
2018-04-14T12:43:09.767Z,37.70
2018-04-14T12:44:09.687Z,34.90
2018-04-14T12:45:09.616Z,36.60
2018-04-14T12:46:09.553Z,36.00
2018-04-14T12:47:09.496Z,35.30
2018-04-14T12:48:09.437Z,36.60
2018-04-14T12:49:09.375Z,36.30
2018-04-14T12:50:09.317Z,35.80
2018-04-14T12:51:09.270Z,35.60
2018-04-14T12:52:09.197Z,37.10
2018-04-14T12:53:09.138Z,33.60
2018-04-14T12:54:09.071Z,36.10
2018-04-14T12:55:09.020Z,40.10
2018-04-14T12:56:08.967Z,40.30
2018-04-14T12:57:08.894Z,40.60
2018-04-14T12:58:08.833Z,39.10
2018-04-14T12:59:08.769Z,39.00
2018-04-14T13:00:08.713Z,37.10
2018-04-14T13:01:08.645Z,38.10
2018-04-14T13:02:08.592Z,40.10
2018-04-14T13:03:08.531Z,38.30
2018-04-14T13:04:08.467Z,37.90
2018-04-14T13:05:08.403Z,38.80
2018-04-14T13:06:08.349Z,37.70
2018-04-14T13:07:08.319Z,39.20
2018-04-14T13:08:08.234Z,38.30
2018-04-14T13:09:08.760Z,39.20
2018-04-14T13:10:08.109Z,36.80
2018-04-14T13:11:08.055Z,37.20
2018-04-14T13:12:07.994Z,35.10
2018-04-14T13:13:07.944Z,33.60
2018-04-14T13:14:07.877Z,34.80
2018-04-14T13:15:07.832Z,34.60
2018-04-14T13:16:07.770Z,35.00
2018-04-14T13:17:07.717Z,35.10
2018-04-14T13:18:07.659Z,54.00
2018-04-14T13:19:07.610Z,84.50
2018-04-14T13:20:07.559Z,45.00
2018-04-14T13:21:07.534Z,36.30
2018-04-14T13:22:07.446Z,95.30
2018-04-14T13:23:07.401Z,50.10
2018-04-14T13:24:07.336Z,64.60
2018-04-14T13:25:07.287Z,54.20
2018-04-14T13:26:07.234Z,107.60
2018-04-14T13:27:07.185Z,39.90
2018-04-14T13:28:07.144Z,34.70
2018-04-14T13:29:07.088Z,81.80
2018-04-14T13:30:07.033Z,68.70
2018-04-14T13:31:06.981Z,57.80
2018-04-14T13:32:06.955Z,47.60
2018-04-14T13:33:06.876Z,50.50
2018-04-14T13:34:06.841Z,42.00
2018-04-14T13:35:06.777Z,43.30
2018-04-14T13:36:06.729Z,35.90
2018-04-14T13:37:06.679Z,36.70
2018-04-14T13:38:06.667Z,32.00
2018-04-14T13:39:06.575Z,46.10
2018-04-14T13:40:06.525Z,88.90
2018-04-14T13:41:06.475Z,54.20
2018-04-14T13:42:06.424Z,101.10
2018-04-14T13:43:06.377Z,59.70
2018-04-14T13:44:06.325Z,53.80
2018-04-14T13:45:07.273Z,44.50
2018-04-14T13:46:06.229Z,40.10
2018-04-14T13:47:06.181Z,36.10
2018-04-14T13:48:06.148Z,29.40
2018-04-14T13:49:06.099Z,42.70
2018-04-14T13:50:06.030Z,37.00
2018-04-14T13:51:05.981Z,38.90
2018-04-14T13:52:05.934Z,32.00
2018-04-14T13:53:05.880Z,36.20
2018-04-14T13:54:05.830Z,31.50
2018-04-14T13:55:05.784Z,36.60